Time;durP1;ratioP1;P1;durP2;ratioP2;P2;SDS_P1;SDS_P2;PMS_P1;PMS_P2;Temp;Humidity;BMP_temperature;BMP_pressure;BME280_temperature;BME280_humidity;BME280_pressure;Samples;Min_cycle;Max_cycle;Signal;HPM_P1;HPM_P2
2024/01/04 00:01:19;;;;;;;9.95;2.50;;;;;;;7.09;100.00;99197.03;5066746;28;20452;-48
2024/01/04 00:03:48;;;;;;;7.70;2.88;;;;;;;7.09;100.00;99202.25;5069545;28;20040;-49
2024/01/04 00:06:20;;;;;;;6.78;2.38;;;;;;;7.12;100.00;99201.19;5070111;28;20441;-46
2024/01/04 00:08:49;;;;;;;9.98;3.53;;;;;;;7.08;100.00;99197.97;5071755;28;20139;-48
2024/01/04 00:11:17;;;;;;;9.70;3.08;;;;;;;7.03;100.00;99207.13;5071108;28;20452;-49
2024/01/04 00:13:46;;;;;;;11.35;3.90;;;;;;;7.05;100.00;99213.91;5071419;28;20087;-47
2024/01/04 00:16:14;;;;;;;10.43;4.60;;;;;;;7.02;100.00;99211.53;5071648;28;20391;-47
2024/01/04 00:18:42;;;;;;;11.13;4.82;;;;;;;7.01;100.00;99225.53;5068991;28;20047;-48
2024/01/04 00:21:13;;;;;;;11.73;5.32;;;;;;;7.05;100.00;99221.75;5067851;28;20053;-46
2024/01/04 00:23:42;;;;;;;10.70;5.18;;;;;;;7.05;100.00;99241.84;5071616;28;20064;-47
2024/01/04 00:26:11;;;;;;;13.77;5.53;;;;;;;7.06;100.00;99249.56;5071681;28;20045;-46
2024/01/04 00:28:39;;;;;;;13.27;6.90;;;;;;;7.04;100.00;99261.06;5071414;28;20489;-48
2024/01/04 00:31:11;;;;;;;13.65;6.00;;;;;;;7.02;100.00;99265.56;5071673;28;20036;-47
2024/01/04 00:33:40;;;;;;;11.52;5.00;;;;;;;7.03;100.00;99277.69;5071352;28;20122;-49
2024/01/04 00:36:13;;;;;;;8.75;3.40;;;;;;;7.03;100.00;99280.31;5070142;28;20062;-47
2024/01/04 00:38:44;;;;;;;11.00;3.00;;;;;;;6.99;100.00;99295.38;5071208;28;20072;-47
2024/01/04 00:41:16;;;;;;;8.25;3.38;;;;;;;7.02;100.00;99292.56;5071190;28;20072;-49
2024/01/04 00:43:44;;;;;;;9.27;2.90;;;;;;;7.03;100.00;99293.38;5068154;28;20539;-47
2024/01/04 00:46:13;;;;;;;9.05;2.95;;;;;;;7.03;100.00;99288.16;5066839;28;21233;-46
2024/01/04 00:48:41;;;;;;;10.50;3.05;;;;;;;7.04;100.00;99297.69;5070710;28;20079;-44
2024/01/04 00:51:10;;;;;;;11.07;3.17;;;;;;;7.05;100.00;99304.56;5069609;28;20053;-44
2024/01/04 00:53:39;;;;;;;8.98;2.95;;;;;;;7.06;100.00;99307.06;5070998;28;20075;-47
2024/01/04 00:56:09;;;;;;;9.10;2.85;;;;;;;7.00;100.00;99317.16;5070813;28;20054;-47
2024/01/04 00:58:37;;;;;;;9.45;2.67;;;;;;;7.01;100.00;99319.66;5070648;28;20124;-47
2024/01/04 01:01:08;;;;;;;9.80;2.47;;;;;;;7.01;100.00;99326.63;5066717;28;20040;-46
2024/01/04 01:03:37;;;;;;;5.82;2.28;;;;;;;7.03;100.00;99336.03;5067101;28;20048;-46
2024/01/04 01:06:11;;;;;;;10.95;3.35;;;;;;;7.01;100.00;99334.47;5070247;28;20106;-45
2024/01/04 01:08:40;;;;;;;9.07;2.88;;;;;;;7.01;100.00;99344.94;5061345;28;20053;-48
2024/01/04 01:11:13;;;;;;;11.13;2.40;;;;;;;7.02;100.00;99349.22;5070678;28;20518;-46
2024/01/04 01:13:41;;;;;;;10.48;2.45;;;;;;;7.02;100.00;99367.53;5070595;28;20048;-46
2024/01/04 01:16:11;;;;;;;10.63;2.60;;;;;;;7.00;100.00;99369.44;5070992;28;20468;-46
2024/01/04 01:18:39;;;;;;;9.13;2.80;;;;;;;7.02;100.00;99372.75;5070686;28;20045;-46
2024/01/04 01:21:08;;;;;;;8.02;2.80;;;;;;;7.06;100.00;99366.34;5070750;28;20045;-45
2024/01/04 01:23:36;;;;;;;9.38;2.95;;;;;;;7.05;100.00;99375.97;5070173;28;20040;-45
2024/01/04 01:26:05;;;;;;;7.32;2.55;;;;;;;7.03;100.00;99385.69;5070698;28;20086;-50
2024/01/04 01:28:35;;;;;;;8.35;3.15;;;;;;;7.02;100.00;99399.75;5069270;28;20399;-49
2024/01/04 01:31:04;;;;;;;7.60;2.83;;;;;;;7.02;100.00;99401.50;5071768;28;20040;-47
2024/01/04 01:33:32;;;;;;;8.38;2.75;;;;;;;7.05;100.00;99399.50;5073900;28;20044;-47
2024/01/04 01:36:06;;;;;;;9.90;3.05;;;;;;;7.05;100.00;99407.34;5072788;28;20059;-48
2024/01/04 01:38:35;;;;;;;8.18;2.75;;;;;;;7.00;100.00;99417.31;5074076;28;20499;-47
2024/01/04 01:41:03;;;;;;;10.30;2.60;;;;;;;7.01;100.00;99426.81;5074061;28;20068;-49
2024/01/04 01:43:32;;;;;;;6.63;2.90;;;;;;;6.99;100.00;99431.31;5074094;28;20560;-51
2024/01/04 01:46:02;;;;;;;9.10;2.75;;;;;;;7.02;100.00;99436.34;5073710;28;20508;-46
2024/01/04 01:48:30;;;;;;;9.35;2.70;;;;;;;7.01;100.00;99433.81;5073806;28;20048;-49
2024/01/04 01:50:59;;;;;;;8.70;3.03;;;;;;;7.02;100.00;99449.41;5073650;28;20049;-48
2024/01/04 01:53:28;;;;;;;10.98;2.95;;;;;;;7.02;100.00;99459.00;5072357;28;20040;-44
2024/01/04 01:55:56;;;;;;;8.43;2.22;;;;;;;7.01;100.00;99460.81;5072081;28;20041;-46
2024/01/04 01:58:25;;;;;;;8.23;2.35;;;;;;;7.02;100.00;99461.63;5073250;28;20037;-45
2024/01/04 02:00:54;;;;;;;10.75;2.60;;;;;;;7.06;100.00;99463.94;5073563;28;20055;-46
2024/01/04 02:03:24;;;;;;;7.10;2.22;;;;;;;7.03;100.00;99463.31;5072365;28;20049;-47
2024/01/04 02:05:53;;;;;;;8.85;2.50;;;;;;;7.01;100.00;99473.88;5073672;28;20048;-46
2024/01/04 02:08:21;;;;;;;7.85;2.08;;;;;;;7.03;100.00;99479.00;5073228;28;20052;-44
2024/01/04 02:10:50;;;;;;;10.18;1.90;;;;;;;7.06;100.00;99478.75;5072150;28;20048;-46
2024/01/04 02:13:18;;;;;;;7.35;2.13;;;;;;;7.03;100.00;99484.22;5072331;28;20076;-48
2024/01/04 02:15:47;;;;;;;11.25;2.90;;;;;;;7.02;100.00;99482.53;5072395;28;20561;-48
2024/01/04 02:18:16;;;;;;;10.52;2.88;;;;;;;7.03;100.00;99492.88;5073285;28;20064;-47
2024/01/04 02:20:46;;;;;;;6.50;2.60;;;;;;;7.01;100.00;99499.16;5073308;28;20522;-46
2024/01/04 02:23:19;;;;;;;9.15;2.47;;;;;;;6.99;100.00;99501.88;5073240;28;20139;-45
2024/01/04 02:25:47;;;;;;;7.28;2.20;;;;;;;7.03;100.00;99512.97;5073171;28;20123;-45
2024/01/04 02:28:16;;;;;;;11.50;2.45;;;;;;;7.02;100.00;99508.69;5073336;28;20049;-46
2024/01/04 02:30:44;;;;;;;9.25;2.50;;;;;;;7.03;100.00;99505.97;5073383;28;20048;-46
2024/01/04 02:33:13;;;;;;;7.10;2.35;;;;;;;7.01;100.00;99509.63;5073043;28;20048;-46
2024/01/04 02:35:42;;;;;;;11.30;2.38;;;;;;;7.00;100.00;99518.44;5073058;28;20072;-47
2024/01/04 02:38:10;;;;;;;8.88;2.97;;;;;;;6.95;100.00;99523.97;5072963;28;20511;-46
2024/01/04 02:40:40;;;;;;;8.95;2.63;;;;;;;6.94;100.00;99528.38;5072202;28;20127;-44
2024/01/04 02:43:09;;;;;;;11.00;2.75;;;;;;;6.92;100.00;99530.25;5071239;28;20068;-45
2024/01/04 02:45:38;;;;;;;11.23;2.90;;;;;;;6.91;100.00;99543.44;5071374;28;20049;-49
2024/01/04 02:48:07;;;;;;;9.32;2.70;;;;;;;6.91;100.00;99535.59;5068622;28;20060;-45
2024/01/04 02:50:35;;;;;;;8.23;2.45;;;;;;;6.90;100.00;99552.22;5069146;28;20048;-46
2024/01/04 02:53:04;;;;;;;12.27;3.50;;;;;;;6.91;100.00;99554.72;5071745;28;20055;-47
2024/01/04 02:55:32;;;;;;;9.65;2.95;;;;;;;6.92;100.00;99555.56;5072360;28;20086;-46
2024/01/04 02:58:02;;;;;;;12.90;3.53;;;;;;;6.93;100.00;99560.66;5072579;28;20079;-47
2024/01/04 03:00:30;;;;;;;11.50;3.25;;;;;;;6.94;100.00;99564.97;5072182;28;20049;-50
2024/01/04 03:02:59;;;;;;;7.45;2.95;;;;;;;6.97;100.00;99566.53;5070879;28;20522;-47
2024/01/04 03:05:27;;;;;;;13.93;3.00;;;;;;;7.00;100.00;99570.72;5072350;28;20074;-47
2024/01/04 03:07:55;;;;;;;7.90;2.95;;;;;;;7.02;100.00;99571.44;5072366;28;20063;-49
2024/01/04 03:10:24;;;;;;;9.85;2.83;;;;;;;7.03;100.00;99567.88;5071285;28;20529;-49
2024/01/04 03:12:52;;;;;;;10.38;3.17;;;;;;;6.97;100.00;99573.53;5066910;28;20044;-49
2024/01/04 03:15:23;;;;;;;10.65;3.38;;;;;;;6.98;100.00;99577.81;5067605;28;20046;-49
2024/01/04 03:17:51;;;;;;;9.15;3.17;;;;;;;6.96;100.00;99579.72;5067867;28;20057;-48
2024/01/04 03:20:20;;;;;;;8.65;3.42;;;;;;;6.92;100.00;99586.91;5071180;28;20502;-47
2024/01/04 03:22:48;;;;;;;10.18;3.15;;;;;;;6.91;100.00;99593.09;5071336;28;20044;-47
2024/01/04 03:25:16;;;;;;;12.35;3.08;;;;;;;6.91;100.00;99596.56;5071959;28;20044;-45
2024/01/04 03:27:45;;;;;;;9.75;3.38;;;;;;;6.91;100.00;99599.16;5071876;28;20068;-46
2024/01/04 03:30:14;;;;;;;10.50;3.13;;;;;;;6.89;100.00;99598.44;5072208;28;20047;-47
2024/01/04 03:32:44;;;;;;;8.35;3.28;;;;;;;6.87;100.00;99605.56;5071540;28;20041;-46
2024/01/04 03:35:12;;;;;;;10.05;3.53;;;;;;;6.86;100.00;99598.66;5056842;28;20380;-46
2024/01/04 03:37:44;;;;;;;10.95;3.42;;;;;;;6.83;100.00;99604.09;5071537;28;20094;-45
2024/01/04 03:40:13;;;;;;;11.02;2.80;;;;;;;6.83;100.00;99603.25;5071444;28;20079;-47
2024/01/04 03:42:44;;;;;;;8.65;2.90;;;;;;;6.79;100.00;99605.25;5070869;28;20066;-45
2024/01/04 03:45:12;;;;;;;10.40;3.35;;;;;;;6.82;100.00;99609.44;5070463;28;20043;-46
2024/01/04 03:47:40;;;;;;;10.23;2.65;;;;;;;6.79;100.00;99615.69;5070445;28;20117;-48
2024/01/04 03:50:11;;;;;;;11.75;3.17;;;;;;;6.79;100.00;99617.47;5071730;28;20048;-46
2024/01/04 03:52:39;;;;;;;8.75;3.10;;;;;;;6.81;100.00;99616.41;5071115;28;20132;-45
2024/01/04 03:55:08;;;;;;;7.32;2.40;;;;;;;6.80;100.00;99622.56;5071669;28;20123;-48
2024/01/04 03:57:37;;;;;;;7.68;2.75;;;;;;;6.79;100.00;99627.91;5071358;28;20541;-47
2024/01/04 04:00:06;;;;;;;7.97;2.95;;;;;;;6.80;100.00;99634.81;5071479;28;20439;-46
2024/01/04 04:02:35;;;;;;;9.25;2.55;;;;;;;6.81;100.00;99639.94;5071195;28;20036;-48
2024/01/04 04:05:04;;;;;;;7.95;2.47;;;;;;;6.83;100.00;99645.06;5071251;28;20040;-49
2024/01/04 04:07:37;;;;;;;6.23;2.17;;;;;;;6.76;100.00;99642.88;5071216;28;20102;-46
2024/01/04 04:10:06;;;;;;;9.25;2.88;;;;;;;6.77;100.00;99654.16;5071029;28;21008;-47
2024/01/04 04:12:35;;;;;;;6.43;2.63;;;;;;;6.77;100.00;99664.59;5071190;28;20530;-45
2024/01/04 04:15:04;;;;;;;9.80;2.90;;;;;;;6.78;100.00;99658.44;5070986;28;20080;-47
2024/01/04 04:17:35;;;;;;;8.85;3.08;;;;;;;6.81;100.00;99658.22;5071190;28;20083;-48
2024/01/04 04:20:04;;;;;;;9.35;2.95;;;;;;;6.80;100.00;99664.38;5069093;28;20508;-47
2024/01/04 04:22:34;;;;;;;8.57;2.72;;;;;;;6.84;100.00;99657.19;5071037;28;20051;-47
2024/01/04 04:25:03;;;;;;;8.95;3.40;;;;;;;6.80;100.00;99669.63;5069494;28;20072;-47
2024/01/04 04:27:32;;;;;;;7.05;3.33;;;;;;;6.80;100.00;99669.63;5069940;28;20048;-47
2024/01/04 04:30:00;;;;;;;7.32;2.67;;;;;;;6.80;100.00;99676.63;5069759;28;20140;-50
2024/01/04 04:32:29;;;;;;;10.43;3.47;;;;;;;6.76;100.00;99676.84;5071419;28;20570;-48
2024/01/04 04:34:57;;;;;;;8.63;3.13;;;;;;;6.78;100.00;99676.75;5069565;28;20059;-47
2024/01/04 04:37:26;;;;;;;9.00;3.58;;;;;;;6.79;100.00;99680.19;5055736;28;20047;-48
2024/01/04 04:39:54;;;;;;;8.77;3.10;;;;;;;6.80;100.00;99676.63;5070705;28;20044;-49
2024/01/04 04:42:24;;;;;;;10.98;2.92;;;;;;;6.80;100.00;99681.84;5070999;28;20047;-49
2024/01/04 04:44:53;;;;;;;8.27;3.25;;;;;;;6.80;100.00;99681.84;5071003;28;20486;-48
2024/01/04 04:47:21;;;;;;;10.82;3.15;;;;;;;6.79;100.00;99683.66;5066497;28;20079;-50
2024/01/04 04:49:49;;;;;;;7.68;3.22;;;;;;;6.79;100.00;99694.09;5066420;28;20061;-51
2024/01/04 04:52:18;;;;;;;8.80;3.30;;;;;;;6.82;100.00;99706.94;5070492;28;20041;-50
2024/01/04 04:54:46;;;;;;;7.40;2.95;;;;;;;6.82;100.00;99704.34;5070399;28;20044;-47
2024/01/04 04:57:15;;;;;;;10.30;3.35;;;;;;;6.80;100.00;99708.00;5070807;28;20036;-58
2024/01/04 04:59:45;;;;;;;7.53;3.03;;;;;;;6.81;100.00;99713.13;5069343;28;20095;-58
2024/01/04 05:02:13;;;;;;;7.47;2.55;;;;;;;6.79;100.00;99714.16;5070673;28;20047;-59
2024/01/04 05:04:43;;;;;;;8.32;2.72;;;;;;;6.80;100.00;99716.66;5070689;28;20048;-59
2024/01/04 05:07:11;;;;;;;7.68;2.80;;;;;;;6.79;100.00;99730.69;5073921;28;20045;-58
2024/01/04 05:09:40;;;;;;;11.27;3.00;;;;;;;6.77;100.00;99741.22;5074772;28;20134;-57
2024/01/04 05:12:08;;;;;;;8.55;2.92;;;;;;;6.80;100.00;99739.34;5074418;28;20372;-58
2024/01/04 05:14:37;;;;;;;7.47;2.72;;;;;;;6.80;100.00;99748.03;5074448;28;20049;-57
2024/01/04 05:17:06;;;;;;;10.48;2.67;;;;;;;6.79;100.00;99746.38;5074191;28;20040;-57
2024/01/04 05:19:35;;;;;;;7.60;2.95;;;;;;;6.81;100.00;99746.25;5074579;28;20538;-58
2024/01/04 05:22:03;;;;;;;5.13;2.33;;;;;;;6.79;100.00;99741.13;5074617;28;20045;-57
2024/01/04 05:24:32;;;;;;;8.52;2.60;;;;;;;6.77;100.00;99740.38;5073941;28;20037;-57
2024/01/04 05:27:00;;;;;;;7.45;3.05;;;;;;;6.73;100.00;99744.97;5061770;28;20052;-58
2024/01/04 05:29:29;;;;;;;6.72;2.60;;;;;;;6.70;100.00;99747.81;5068864;28;20395;-58
2024/01/04 05:31:57;;;;;;;7.03;2.45;;;;;;;6.76;100.00;99755.25;5074216;28;20041;-57
2024/01/04 05:34:29;;;;;;;8.95;3.00;;;;;;;6.72;100.00;99743.31;5074396;28;20116;-58
2024/01/04 05:36:58;;;;;;;7.47;2.70;;;;;;;6.72;100.00;99756.38;5074194;28;20539;-58
2024/01/04 05:39:27;;;;;;;7.13;2.58;;;;;;;6.73;100.00;99765.06;5074126;28;20029;-58
2024/01/04 05:41:55;;;;;;;7.85;2.80;;;;;;;6.74;100.00;99771.97;5074206;28;20101;-58
2024/01/04 05:44:24;;;;;;;7.32;2.75;;;;;;;6.72;100.00;99768.59;5074059;28;20048;-58
2024/01/04 05:46:52;;;;;;;5.38;2.42;;;;;;;6.71;100.00;99777.41;5073428;28;20048;-57
2024/01/04 05:49:20;;;;;;;7.30;2.45;;;;;;;6.70;100.00;99779.16;5062555;28;20507;-58
2024/01/04 05:51:50;;;;;;;6.55;2.28;;;;;;;6.71;100.00;99786.06;5073912;28;20053;-59
2024/01/04 05:54:19;;;;;;;5.70;2.22;;;;;;;6.71;100.00;99787.84;5073778;28;20519;-59
2024/01/04 05:56:47;;;;;;;4.47;2.05;;;;;;;6.71;100.00;99788.69;5071432;28;20040;-58
2024/01/04 05:59:16;;;;;;;6.18;2.47;;;;;;;6.71;100.00;99796.53;5073446;28;20454;-58
2024/01/04 06:01:44;;;;;;;7.85;2.88;;;;;;;6.72;100.00;99794.72;5073411;28;20044;-58
2024/01/04 06:04:13;;;;;;;9.55;2.60;;;;;;;6.72;100.00;99799.97;5071343;28;20044;-58
2024/01/04 06:06:41;;;;;;;7.68;2.70;;;;;;;6.68;100.00;99803.72;5070174;28;20113;-59
2024/01/04 06:09:11;;;;;;;7.35;2.58;;;;;;;6.64;100.00;99812.69;5072254;28;20135;-58
2024/01/04 06:11:39;;;;;;;7.63;2.88;;;;;;;6.62;100.00;99804.94;5069064;28;20040;-58
2024/01/04 06:14:08;;;;;;;6.05;2.40;;;;;;;6.61;100.00;99808.50;5070327;28;20056;-58
2024/01/04 06:16:36;;;;;;;6.07;2.45;;;;;;;6.60;100.00;99823.34;5072860;28;20051;-58
2024/01/04 06:19:04;;;;;;;6.10;2.65;;;;;;;6.65;100.00;99820.41;5072333;28;20070;-58
2024/01/04 06:21:33;;;;;;;8.23;2.72;;;;;;;6.63;100.00;99834.53;5073273;28;20041;-59
2024/01/04 06:24:02;;;;;;;6.22;2.30;;;;;;;6.62;100.00;99836.31;5073499;28;20064;-58
2024/01/04 06:26:32;;;;;;;6.32;2.30;;;;;;;6.63;100.00;99839.78;5072228;28;20048;-58
2024/01/04 06:29:01;;;;;;;9.57;2.35;;;;;;;6.65;100.00;99846.56;5073008;28;20570;-58
2024/01/04 06:31:29;;;;;;;8.00;2.60;;;;;;;6.63;100.00;99847.63;5072915;28;20055;-58
2024/01/04 06:33:58;;;;;;;6.55;2.60;;;;;;;6.69;100.00;99847.19;5072955;28;20041;-58
2024/01/04 06:36:26;;;;;;;7.05;2.40;;;;;;;6.64;100.00;99851.88;5073156;28;20641;-58
2024/01/04 06:38:55;;;;;;;6.75;2.30;;;;;;;6.66;100.00;99852.63;5073181;28;20148;-58
2024/01/04 06:41:29;;;;;;;7.20;2.75;;;;;;;6.68;100.00;99853.34;5072825;28;20036;-59
2024/01/04 06:43:59;;;;;;;5.60;2.45;;;;;;;6.66;100.00;99861.28;5072734;28;20044;-59
2024/01/04 06:46:28;;;;;;;7.50;3.40;;;;;;;6.65;100.00;99864.84;5072614;28;20076;-59
2024/01/04 06:48:56;;;;;;;9.57;3.10;;;;;;;6.67;100.00;99873.44;5072971;28;20048;-59
2024/01/04 06:51:26;;;;;;;8.32;2.75;;;;;;;6.66;100.00;99871.75;5072723;28;20048;-58
2024/01/04 06:53:54;;;;;;;5.90;2.38;;;;;;;6.66;100.00;99870.91;5072878;28;20086;-58
2024/01/04 06:56:27;;;;;;;5.63;2.15;;;;;;;6.63;100.00;99874.56;5071389;28;20523;-59
2024/01/04 06:58:55;;;;;;;6.13;2.35;;;;;;;6.66;100.00;99881.38;5072111;28;20049;-58
2024/01/04 07:01:25;;;;;;;8.18;2.60;;;;;;;6.67;100.00;99885.66;5072504;28;20070;-58
2024/01/04 07:03:54;;;;;;;7.03;2.58;;;;;;;6.65;100.00;99890.13;5071116;28;20054;-58
2024/01/04 07:06:24;;;;;;;7.63;2.75;;;;;;;6.64;100.00;99896.28;5071240;28;20091;-58
2024/01/04 07:08:55;;;;;;;7.47;2.53;;;;;;;6.65;100.00;99900.59;5072418;28;20048;-59
2024/01/04 07:11:23;;;;;;;9.63;2.25;;;;;;;6.64;100.00;99896.28;5071418;28;20381;-59
2024/01/04 07:13:51;;;;;;;7.20;2.70;;;;;;;6.63;100.00;99907.72;5072451;28;20057;-59
2024/01/04 07:16:20;;;;;;;6.13;2.42;;;;;;;6.62;100.00;99901.63;5071692;28;20041;-59
2024/01/04 07:18:49;;;;;;;7.03;2.42;;;;;;;6.63;100.00;99910.31;5072073;28;20488;-58
2024/01/04 07:21:17;;;;;;;7.00;2.13;;;;;;;6.62;100.00;99916.47;5071819;28;20044;-57
2024/01/04 07:23:46;;;;;;;6.47;2.17;;;;;;;6.61;100.00;99920.84;5072294;28;20044;-58
2024/01/04 07:26:14;;;;;;;6.53;2.90;;;;;;;6.63;100.00;99923.38;5070806;28;20049;-59
2024/01/04 07:28:43;;;;;;;5.50;2.33;;;;;;;6.63;100.00;99926.81;5072052;28;20045;-58
2024/01/04 07:31:11;;;;;;;8.30;2.95;;;;;;;6.64;100.00;99932.88;5072211;28;20071;-58
2024/01/04 07:33:39;;;;;;;6.85;2.80;;;;;;;6.65;100.00;99934.56;5072198;28;20048;-58
2024/01/04 07:36:09;;;;;;;6.50;2.58;;;;;;;6.63;100.00;99942.50;5072279;28;20048;-59
2024/01/04 07:38:37;;;;;;;7.35;3.20;;;;;;;6.67;100.00;99948.38;5072051;28;20110;-58
2024/01/04 07:41:09;;;;;;;8.43;2.60;;;;;;;6.65;100.00;99952.84;5071180;28;20105;-59
2024/01/04 07:43:37;;;;;;;6.78;2.63;;;;;;;6.63;100.00;99965.19;5071934;28;20500;-58
2024/01/04 07:46:06;;;;;;;6.50;3.00;;;;;;;6.61;100.00;99962.66;5071623;28;20131;-58
2024/01/04 07:48:34;;;;;;;6.68;3.10;;;;;;;6.62;100.00;99979.19;5071523;28;20102;-58
2024/01/04 07:51:02;;;;;;;6.57;2.67;;;;;;;6.62;100.00;99977.41;5068950;28;20052;-59
2024/01/04 07:53:32;;;;;;;6.80;2.97;;;;;;;6.61;100.00;99973.09;5068429;28;20365;-58
2024/01/04 07:56:00;;;;;;;7.78;2.63;;;;;;;6.59;100.00;99981.03;5068462;28;20039;-58
2024/01/04 07:58:29;;;;;;;7.03;2.78;;;;;;;6.62;100.00;99979.19;5068503;28;20132;-58
2024/01/04 08:00:57;;;;;;;6.30;2.70;;;;;;;6.56;100.00;99975.19;5071316;28;20081;-58
2024/01/04 08:03:28;;;;;;;6.50;2.60;;;;;;;6.55;100.00;99982.16;5071521;28;20097;-58
2024/01/04 08:05:56;;;;;;;7.90;2.90;;;;;;;6.56;100.00;99985.63;5071542;28;20418;-58
2024/01/04 08:08:26;;;;;;;7.50;2.97;;;;;;;6.55;100.00;99989.16;5071320;28;20055;-58
2024/01/04 08:10:56;;;;;;;6.32;3.05;;;;;;;6.57;100.00;99985.53;5070379;28;20117;-58
2024/01/04 08:13:24;;;;;;;7.03;2.65;;;;;;;6.58;100.00;99986.34;5071355;28;20097;-58
2024/01/04 08:15:52;;;;;;;7.40;3.00;;;;;;;6.57;100.00;99985.53;5071755;28;20061;-58
2024/01/04 08:18:21;;;;;;;6.03;3.40;;;;;;;6.62;100.00;99987.03;5068432;28;20048;-58
2024/01/04 08:20:50;;;;;;;8.73;3.28;;;;;;;6.58;100.00;99995.03;5067162;28;20048;-58
2024/01/04 08:23:18;;;;;;;7.28;2.80;;;;;;;6.58;100.00;99995.03;5068643;28;20052;-58
2024/01/04 08:25:47;;;;;;;6.15;2.92;;;;;;;6.58;100.00;100002.88;5070352;28;20552;-58
2024/01/04 08:28:16;;;;;;;8.60;3.28;;;;;;;6.58;100.00;99999.41;5071680;28;20036;-58
2024/01/04 08:30:44;;;;;;;7.43;3.60;;;;;;;6.59;100.00;100001.09;5071623;28;20048;-58
2024/01/04 08:33:13;;;;;;;6.93;3.20;;;;;;;6.59;100.00;100006.34;5071322;28;20054;-58
2024/01/04 08:35:41;;;;;;;6.97;3.28;;;;;;;6.58;100.00;100002.03;5070491;28;20491;-58
2024/01/04 08:38:09;;;;;;;7.00;3.13;;;;;;;6.59;100.00;100004.53;5070559;28;20109;-58
2024/01/04 08:40:39;;;;;;;8.77;3.33;;;;;;;6.59;100.00;100004.53;5070599;28;20106;-57
2024/01/04 08:43:07;;;;;;;7.15;3.28;;;;;;;6.57;100.00;100006.44;5075549;28;20127;-58
2024/01/04 08:45:37;;;;;;;7.43;3.67;;;;;;;6.59;100.00;100003.72;5074402;28;20392;-58
2024/01/04 08:48:05;;;;;;;6.32;3.47;;;;;;;6.58;100.00;100015.09;5075322;28;20048;-59
2024/01/04 08:50:36;;;;;;;9.95;3.42;;;;;;;6.57;100.00;100010.81;5075561;28;20373;-58
2024/01/04 08:53:05;;;;;;;6.45;3.25;;;;;;;6.57;100.00;100011.66;5074155;28;20086;-58
2024/01/04 08:55:33;;;;;;;7.13;3.85;;;;;;;6.57;100.00;100018.63;5075699;28;20578;-59
2024/01/04 08:58:02;;;;;;;6.60;3.35;;;;;;;6.56;100.00;100025.66;5083149;28;20072;-58
2024/01/04 09:00:32;;;;;;;8.73;3.72;;;;;;;6.55;100.00;100026.56;5095631;28;20052;-58
2024/01/04 09:03:02;;;;;;;7.88;4.18;;;;;;;6.57;100.00;100037.78;5095398;28;20522;-58
2024/01/04 09:05:31;;;;;;;6.78;3.47;;;;;;;6.60;100.00;100037.59;5076458;28;20059;-58
2024/01/04 09:07:59;;;;;;;7.65;4.20;;;;;;;6.60;100.00;100037.59;5074022;28;20130;-58
2024/01/04 09:10:28;;;;;;;8.15;3.67;;;;;;;6.62;100.00;100036.66;5073552;28;20102;-58
2024/01/04 09:12:56;;;;;;;8.25;4.10;;;;;;;6.64;100.00;100045.22;5073050;28;20041;-58
2024/01/04 09:15:25;;;;;;;8.13;3.78;;;;;;;6.64;100.00;100053.94;5075119;28;20105;-58
2024/01/04 09:17:56;;;;;;;9.93;3.92;;;;;;;6.65;100.00;100066.03;5073607;28;20068;-58
2024/01/04 09:20:26;;;;;;;10.15;4.03;;;;;;;6.66;100.00;100062.50;5073878;28;20102;-58
2024/01/04 09:22:54;;;;;;;8.77;3.97;;;;;;;6.67;100.00;100063.34;5074647;28;20750;-58
2024/01/04 09:25:22;;;;;;;7.53;3.80;;;;;;;6.70;100.00;100063.16;5074058;28;20103;-58
2024/01/04 09:27:55;;;;;;;8.88;4.25;;;;;;;6.69;100.00;100064.91;5070129;28;20049;-58
2024/01/04 09:30:24;;;;;;;9.10;3.80;;;;;;;6.71;100.00;100067.47;5073241;28;20116;-59
2024/01/04 09:32:52;;;;;;;11.50;4.45;;;;;;;6.72;100.00;100074.34;5073120;28;20059;-58
2024/01/04 09:35:23;;;;;;;10.07;4.70;;;;;;;6.73;100.00;100071.63;5073789;28;20049;-58
2024/01/04 09:37:52;;;;;;;8.60;3.35;;;;;;;6.76;100.00;100074.06;5070966;28;20048;-58
2024/01/04 09:40:21;;;;;;;7.70;3.65;;;;;;;6.80;100.00;100086.94;5071334;28;20102;-58
2024/01/04 09:42:51;;;;;;;8.95;3.83;;;;;;;6.84;100.00;100083.22;5068072;28;20060;-48
2024/01/04 09:45:21;;;;;;;8.13;3.65;;;;;;;6.85;100.00;100087.50;5071804;28;20094;-46
2024/01/04 09:47:56;;;;;;;9.00;3.90;;;;;;;6.90;100.00;100085.47;5072748;28;20063;-46
2024/01/04 09:50:25;;;;;;;7.82;3.72;;;;;;;6.92;100.00;100083.56;5072552;28;20044;-50
2024/01/04 09:52:56;;;;;;;8.45;4.25;;;;;;;6.95;100.00;100096.44;5073057;28;20491;-47
2024/01/04 09:55:26;;;;;;;10.13;4.37;;;;;;;6.98;100.00;100096.28;5069149;28;20135;-50
2024/01/04 09:57:55;;;;;;;8.35;4.03;;;;;;;7.01;100.00;100105.69;5068585;28;20824;-46
2024/01/04 10:00:23;;;;;;;8.90;3.88;;;;;;;7.01;100.00;100103.06;5072474;28;20040;-46
2024/01/04 10:02:51;;;;;;;7.97;4.10;;;;;;;7.04;100.00;100111.56;5073084;28;20068;-46
2024/01/04 10:05:22;;;;;;;10.98;4.38;;;;;;;7.06;100.00;100108.84;5073046;28;20106;-49
2024/01/04 10:08:04;;;;;;;11.57;4.18;;;;;;;7.07;100.00;100107.94;5071058;28;20045;-46
2024/01/04 10:10:36;;;;;;;9.15;4.20;;;;;;;7.08;100.00;100104.38;5073049;28;20044;-48
2024/01/04 10:13:05;;;;;;;10.93;5.07;;;;;;;7.10;100.00;100112.97;5073069;28;20037;-46
2024/01/04 10:15:36;;;;;;;7.30;4.00;;;;;;;7.12;100.00;100116.34;5070474;28;20110;-47
2024/01/04 10:18:09;;;;;;;11.20;4.07;;;;;;;7.09;100.00;100108.69;5072799;28;20492;-49
2024/01/04 10:20:37;;;;;;;8.82;4.07;;;;;;;7.12;100.00;100108.50;5073768;28;20476;-45
2024/01/04 10:23:11;;;;;;;11.07;5.28;;;;;;;7.16;100.00;100109.13;5072853;28;20068;-59
2024/01/04 10:25:39;;;;;;;10.25;4.80;;;;;;;7.17;100.00;100109.06;5073611;28;20050;-59
2024/01/04 10:28:08;;;;;;;7.85;4.13;;;;;;;7.16;100.00;100114.34;5073300;28;20051;-59
2024/01/04 10:30:42;;;;;;;10.75;4.43;;;;;;;7.15;100.00;100120.53;5073583;28;20102;-59
2024/01/04 10:33:10;;;;;;;7.93;3.78;;;;;;;7.17;100.00;100119.50;5073594;28;20143;-58
2024/01/04 10:35:39;;;;;;;9.38;4.07;;;;;;;7.18;100.00;100117.72;5073620;28;20060;-59
2024/01/04 10:38:08;;;;;;;7.60;4.10;;;;;;;7.20;100.00;100119.31;5072024;28;20210;-59
2024/01/04 10:40:37;;;;;;;8.73;4.22;;;;;;;7.25;100.00;100119.00;5073455;28;20040;-59
2024/01/04 10:43:05;;;;;;;7.55;4.00;;;;;;;7.28;100.00;100118.84;5073336;28;20110;-59
2024/01/04 10:45:33;;;;;;;9.32;4.15;;;;;;;7.31;100.00;100130.88;5073329;28;20125;-58
2024/01/04 10:48:03;;;;;;;7.50;3.72;;;;;;;7.35;100.00;100133.22;5073387;28;20052;-58
2024/01/04 10:50:32;;;;;;;8.40;3.80;;;;;;;7.34;100.00;100134.13;5073452;28;20133;-59
2024/01/04 10:53:03;;;;;;;8.57;3.70;;;;;;;7.35;100.00;100141.06;5073294;28;20045;-58
2024/01/04 10:55:34;;;;;;;7.20;3.15;;;;;;;7.38;100.00;100142.66;5073231;28;20444;-59
2024/01/04 10:58:04;;;;;;;7.40;3.13;;;;;;;7.39;100.00;100139.06;5073072;28;20076;-60
2024/01/04 11:00:33;;;;;;;6.63;3.33;;;;;;;7.42;100.00;100150.19;5072892;28;20056;-58
2024/01/04 11:03:06;;;;;;;7.32;3.08;;;;;;;7.45;100.00;100141.31;5071294;28;20159;-59
2024/01/04 11:05:35;;;;;;;6.65;2.92;;;;;;;7.44;100.00;100139.63;5105307;28;20064;-59
2024/01/04 11:08:04;;;;;;;4.40;2.90;;;;;;;7.45;100.00;100136.06;5072903;28;20567;-59
2024/01/04 11:10:35;;;;;;;6.75;2.88;;;;;;;7.41;100.00;100142.44;5072309;28;20045;-58
2024/01/04 11:13:04;;;;;;;7.32;2.90;;;;;;;7.44;100.00;100152.72;5071016;28;20056;-58
2024/01/04 11:15:32;;;;;;;4.85;2.45;;;;;;;7.47;100.00;100138.59;5072628;28;20547;-59
2024/01/04 11:18:22;;;;;;;7.47;3.08;;;;;;;7.51;100.00;100143.56;5072596;28;20389;-59
2024/01/04 11:21:07;;;;;;;4.63;2.33;;;;;;;7.52;100.00;100142.59;5071487;28;20052;-59
2024/01/04 11:23:55;;;;;;;5.85;2.47;;;;;;;7.57;100.00;100145.75;5072407;28;20503;-59
2024/01/04 11:26:34;;;;;;;5.93;2.20;;;;;;;7.56;100.00;100148.47;5072388;28;20044;-59
2024/01/04 11:29:08;;;;;;;6.43;2.70;;;;;;;7.56;100.00;100138.84;5072562;28;20488;-59
2024/01/04 11:31:43;;;;;;;6.60;2.20;;;;;;;7.63;100.00;100130.63;5072175;28;20056;-48
2024/01/04 11:34:12;;;;;;;6.68;2.30;;;;;;;7.64;100.00;100127.06;5071800;28;20059;-46
2024/01/04 11:36:40;;;;;;;5.80;2.20;;;;;;;7.64;100.00;100132.31;5069007;28;20055;-45
2024/01/04 11:39:08;;;;;;;6.05;2.50;;;;;;;7.71;100.00;100130.97;5069749;28;20114;-48